sensor_id;sensor_type;location;lat;lon;timestamp;pressure;altitude;pressure_sealevel;temperature;humidity
62544;BME280;48597;49.030;1.822;2023-03-15T00:01:01;100814.22;;;20.97;36.61
62544;BME280;48597;49.030;1.822;2023-03-15T00:03:28;100821.56;;;20.98;36.69
62544;BME280;48597;49.030;1.822;2023-03-15T00:05:53;100817.44;;;20.99;36.69
62544;BME280;48597;49.030;1.822;2023-03-15T00:08:19;100817.78;;;21.01;36.58
62544;BME280;48597;49.030;1.822;2023-03-15T00:10:46;100812.03;;;21.01;36.46
62544;BME280;48597;49.030;1.822;2023-03-15T00:13:13;100816.53;;;21.02;36.69
62544;BME280;48597;49.030;1.822;2023-03-15T00:15:50;100820.66;;;21.01;36.70
62544;BME280;48597;49.030;1.822;2023-03-15T00:18:17;100823.81;;;21.03;36.64
62544;BME280;48597;49.030;1.822;2023-03-15T00:20:42;100820.97;;;21.03;36.76
62544;BME280;48597;49.030;1.822;2023-03-15T00:23:08;100813.97;;;21.04;36.67
62544;BME280;48597;49.030;1.822;2023-03-15T00:25:33;100819.25;;;21.06;36.73
62544;BME280;48597;49.030;1.822;2023-03-15T00:27:59;100820.03;;;21.07;36.50
62544;BME280;48597;49.030;1.822;2023-03-15T00:30:24;100826.13;;;21.09;36.61
62544;BME280;48597;49.030;1.822;2023-03-15T00:32:51;100814.66;;;21.09;36.54
62544;BME280;48597;49.030;1.822;2023-03-15T00:35:18;100822.81;;;21.10;36.49
62544;BME280;48597;49.030;1.822;2023-03-15T00:37:44;100823.59;;;21.11;36.49
62544;BME280;48597;49.030;1.822;2023-03-15T00:40:10;100827.28;;;21.11;36.63
62544;BME280;48597;49.030;1.822;2023-03-15T00:42:37;100830.94;;;21.12;36.65
62544;BME280;48597;49.030;1.822;2023-03-15T00:45:03;100826.00;;;21.12;36.52
62544;BME280;48597;49.030;1.822;2023-03-15T00:47:29;100824.75;;;21.13;36.73
62544;BME280;48597;49.030;1.822;2023-03-15T00:49:54;100837.81;;;21.14;36.64
62544;BME280;48597;49.030;1.822;2023-03-15T00:52:20;100827.97;;;21.15;36.69
62544;BME280;48597;49.030;1.822;2023-03-15T00:54:53;100836.56;;;21.15;36.70
62544;BME280;48597;49.030;1.822;2023-03-15T00:57:19;100822.22;;;21.15;36.78
62544;BME280;48597;49.030;1.822;2023-03-15T00:59:45;100834.00;;;21.17;36.53
62544;BME280;48597;49.030;1.822;2023-03-15T01:02:11;100835.28;;;21.16;36.61
62544;BME280;48597;49.030;1.822;2023-03-15T01:04:36;100830.03;;;21.15;36.48
62544;BME280;48597;49.030;1.822;2023-03-15T01:07:02;100835.28;;;21.16;36.51
62544;BME280;48597;49.030;1.822;2023-03-15T01:09:28;100828.28;;;21.17;36.37
62544;BME280;48597;49.030;1.822;2023-03-15T01:11:56;100834.00;;;21.17;36.58
62544;BME280;48597;49.030;1.822;2023-03-15T01:14:21;100833.22;;;21.17;36.44
62544;BME280;48597;49.030;1.822;2023-03-15T01:16:47;100831.63;;;21.16;36.36
62544;BME280;48597;49.030;1.822;2023-03-15T01:19:12;100830.03;;;21.15;36.34
62544;BME280;48597;49.030;1.822;2023-03-15T01:21:38;100834.16;;;21.14;36.38
62544;BME280;48597;49.030;1.822;2023-03-15T01:24:03;100835.41;;;21.13;36.28
62544;BME280;48597;49.030;1.822;2023-03-15T01:26:29;100841.94;;;21.13;36.47
62544;BME280;48597;49.030;1.822;2023-03-15T01:28:54;100839.88;;;21.14;36.48
62544;BME280;48597;49.030;1.822;2023-03-15T01:31:25;100842.75;;;21.14;36.26
62544;BME280;48597;49.030;1.822;2023-03-15T01:33:51;100842.88;;;21.10;36.50
62544;BME280;48597;49.030;1.822;2023-03-15T01:36:17;100844.47;;;21.11;36.41
62544;BME280;48597;49.030;1.822;2023-03-15T01:38:44;100846.06;;;21.12;36.51
62544;BME280;48597;49.030;1.822;2023-03-15T01:41:13;100839.09;;;21.13;36.50
62544;BME280;48597;49.030;1.822;2023-03-15T01:43:38;100851.34;;;21.14;36.23
62544;BME280;48597;49.030;1.822;2023-03-15T01:49:01;100849.28;;;21.14;36.42
62544;BME280;48597;49.030;1.822;2023-03-15T01:54:14;100860.75;;;21.14;36.35
62544;BME280;48597;49.030;1.822;2023-03-15T01:57:29;100859.50;;;21.15;36.46
62544;BME280;48597;49.030;1.822;2023-03-15T01:59:32;100853.28;;;21.17;36.26
62544;BME280;48597;49.030;1.822;2023-03-15T02:01:59;100852.97;;;21.15;36.40
62544;BME280;48597;49.030;1.822;2023-03-15T02:04:30;100847.53;;;21.17;36.38
62544;BME280;48597;49.030;1.822;2023-03-15T02:06:59;100846.75;;;21.16;36.44
62544;BME280;48597;49.030;1.822;2023-03-15T02:09:39;100854.88;;;21.18;36.31
62544;BME280;48597;49.030;1.822;2023-03-15T02:12:07;100851.59;;;21.19;36.27
62544;BME280;48597;49.030;1.822;2023-03-15T02:14:33;100847.91;;;21.19;36.36
62544;BME280;48597;49.030;1.822;2023-03-15T02:16:59;100850.78;;;21.19;36.41
62544;BME280;48597;49.030;1.822;2023-03-15T02:19:37;100843.78;;;21.20;36.19
62544;BME280;48597;49.030;1.822;2023-03-15T02:22:51;100841.34;;;21.18;36.25
62544;BME280;48597;49.030;1.822;2023-03-15T02:25:25;100852.38;;;21.20;36.42
62544;BME280;48597;49.030;1.822;2023-03-15T02:27:56;100848.25;;;21.21;36.50
62544;BME280;48597;49.030;1.822;2023-03-15T02:30:22;100854.44;;;21.19;36.34
62544;BME280;48597;49.030;1.822;2023-03-15T02:32:48;100856.88;;;21.21;36.50
62544;BME280;48597;49.030;1.822;2023-03-15T02:35:22;100848.25;;;21.21;36.18
62544;BME280;48597;49.030;1.822;2023-03-15T02:37:48;100845.41;;;21.21;36.23
62544;BME280;48597;49.030;1.822;2023-03-15T02:40:17;100843.78;;;21.20;36.15
62544;BME280;48597;49.030;1.822;2023-03-15T02:42:43;100846.66;;;21.20;36.34
62544;BME280;48597;49.030;1.822;2023-03-15T02:45:09;100843.78;;;21.20;36.48
62544;BME280;48597;49.030;1.822;2023-03-15T02:47:34;100845.47;;;21.17;36.04
62544;BME280;48597;49.030;1.822;2023-03-15T02:50:00;100842.63;;;21.17;36.17
62544;BME280;48597;49.030;1.822;2023-03-15T02:52:25;100843.88;;;21.16;36.19
62544;BME280;48597;49.030;1.822;2023-03-15T02:54:51;100842.63;;;21.17;36.32
62544;BME280;48597;49.030;1.822;2023-03-15T03:04:02;100854.06;;;21.17;36.07
62544;BME280;48597;49.030;1.822;2023-03-15T03:06:27;100848.34;;;21.17;36.43
62544;BME280;48597;49.030;1.822;2023-03-15T03:08:53;100847.53;;;21.17;36.08
62544;BME280;48597;49.030;1.822;2023-03-15T03:11:18;100852.97;;;21.15;36.40
62544;BME280;48597;49.030;1.822;2023-03-15T03:13:44;100856.13;;;21.17;36.34
62544;BME280;48597;49.030;1.822;2023-03-15T03:16:10;100861.88;;;21.17;36.17
62544;BME280;48597;49.030;1.822;2023-03-15T03:18:35;100853.28;;;21.17;36.12
62544;BME280;48597;49.030;1.822;2023-03-15T03:21:05;100853.28;;;21.17;36.33
62544;BME280;48597;49.030;1.822;2023-03-15T03:23:32;100854.88;;;21.18;36.09
62544;BME280;48597;49.030;1.822;2023-03-15T03:25:59;100861.88;;;21.17;36.26
62544;BME280;48597;49.030;1.822;2023-03-15T03:28:27;100859.00;;;21.17;36.09
62544;BME280;48597;49.030;1.822;2023-03-15T03:30:54;100859.50;;;21.15;36.08
62544;BME280;48597;49.030;1.822;2023-03-15T03:33:20;100859.00;;;21.17;36.08
62544;BME280;48597;49.030;1.822;2023-03-15T03:35:46;100856.94;;;21.17;36.07
62544;BME280;48597;49.030;1.822;2023-03-15T03:38:12;100855.34;;;21.16;36.05
62544;BME280;48597;49.030;1.822;2023-03-15T03:40:38;100850.91;;;21.15;36.25
62544;BME280;48597;49.030;1.822;2023-03-15T03:43:03;100861.06;;;21.16;36.14
62544;BME280;48597;49.030;1.822;2023-03-15T03:45:28;100859.50;;;21.15;36.06
62544;BME280;48597;49.030;1.822;2023-03-15T03:47:54;100860.28;;;21.16;36.13
62544;BME280;48597;49.030;1.822;2023-03-15T03:50:19;100859.50;;;21.15;36.09
62544;BME280;48597;49.030;1.822;2023-03-15T03:52:45;100863.63;;;21.14;36.29
62544;BME280;48597;49.030;1.822;2023-03-15T03:55:10;100867.28;;;21.15;36.04
62544;BME280;48597;49.030;1.822;2023-03-15T03:57:40;100869.66;;;21.16;36.12
62544;BME280;48597;49.030;1.822;2023-03-15T04:00:07;100870.16;;;21.15;36.10
62544;BME280;48597;49.030;1.822;2023-03-15T04:02:34;100882.88;;;21.14;36.18
62544;BME280;48597;49.030;1.822;2023-03-15T04:04:59;100887.34;;;21.15;36.17
62544;BME280;48597;49.030;1.822;2023-03-15T04:07:25;100886.09;;;21.16;36.01
62544;BME280;48597;49.030;1.822;2023-03-15T04:09:50;100875.09;;;21.14;36.05
62544;BME280;48597;49.030;1.822;2023-03-15T04:12:16;100880.00;;;21.14;36.14
62544;BME280;48597;49.030;1.822;2023-03-15T04:14:41;100878.75;;;21.15;36.03
62544;BME280;48597;49.030;1.822;2023-03-15T04:17:07;100877.94;;;21.14;36.19
62544;BME280;48597;49.030;1.822;2023-03-15T04:19:33;100874.28;;;21.14;35.96
62544;BME280;48597;49.030;1.822;2023-03-15T04:21:58;100870.59;;;21.13;36.04
62544;BME280;48597;49.030;1.822;2023-03-15T04:24:33;100869.81;;;21.13;36.18
62544;BME280;48597;49.030;1.822;2023-03-15T04:26:59;100866.94;;;21.13;35.95
62544;BME280;48597;49.030;1.822;2023-03-15T04:29:25;100873.47;;;21.13;36.06
62544;BME280;48597;49.030;1.822;2023-03-15T04:31:50;100870.25;;;21.11;36.06
62544;BME280;48597;49.030;1.822;2023-03-15T04:34:16;100873.13;;;21.11;36.06
62544;BME280;48597;49.030;1.822;2023-03-15T04:36:41;100873.94;;;21.12;36.09
62544;BME280;48597;49.030;1.822;2023-03-15T04:39:07;100875.19;;;21.11;35.83
62544;BME280;48597;49.030;1.822;2023-03-15T04:41:34;100891.59;;;21.10;36.17
62544;BME280;48597;49.030;1.822;2023-03-15T04:44:04;100893.66;;;21.10;36.14
62544;BME280;48597;49.030;1.822;2023-03-15T04:46:32;100891.59;;;21.10;36.16
62544;BME280;48597;49.030;1.822;2023-03-15T04:48:58;100894.91;;;21.09;36.07
62544;BME280;48597;49.030;1.822;2023-03-15T04:51:24;100887.56;;;21.08;35.88
62544;BME280;48597;49.030;1.822;2023-03-15T04:53:49;100894.91;;;21.09;35.98
62544;BME280;48597;49.030;1.822;2023-03-15T04:56:15;100895.38;;;21.07;36.15
62544;BME280;48597;49.030;1.822;2023-03-15T04:58:40;100899.03;;;21.08;36.08
62544;BME280;48597;49.030;1.822;2023-03-15T05:01:06;100903.16;;;21.07;36.06
62544;BME280;48597;49.030;1.822;2023-03-15T05:03:31;100903.97;;;21.07;36.27
62544;BME280;48597;49.030;1.822;2023-03-15T05:05:56;100910.94;;;21.06;35.91
62544;BME280;48597;49.030;1.822;2023-03-15T05:08:22;100918.75;;;21.05;36.09
62544;BME280;48597;49.030;1.822;2023-03-15T05:10:47;100919.19;;;21.04;36.10
62544;BME280;48597;49.030;1.822;2023-03-15T05:13:12;100914.28;;;21.04;36.21
62544;BME280;48597;49.030;1.822;2023-03-15T05:15:38;100911.41;;;21.04;36.10
62544;BME280;48597;49.030;1.822;2023-03-15T05:18:03;100918.41;;;21.03;36.09
62544;BME280;48597;49.030;1.822;2023-03-15T05:20:29;100909.81;;;21.03;36.23
62544;BME280;48597;49.030;1.822;2023-03-15T05:22:54;100915.53;;;21.03;36.20
62544;BME280;48597;49.030;1.822;2023-03-15T05:25:20;100908.22;;;21.02;35.97
62544;BME280;48597;49.030;1.822;2023-03-15T05:27:45;100910.75;;;21.00;36.02
62544;BME280;48597;49.030;1.822;2023-03-15T05:30:11;100919.34;;;21.00;36.13
62544;BME280;48597;49.030;1.822;2023-03-15T05:32:38;100919.78;;;20.99;36.07
62544;BME280;48597;49.030;1.822;2023-03-15T05:35:06;100917.38;;;20.97;36.02
62544;BME280;48597;49.030;1.822;2023-03-15T05:37:32;100912.44;;;20.98;36.07
62544;BME280;48597;49.030;1.822;2023-03-15T05:39:58;100913.72;;;20.97;36.19
62544;BME280;48597;49.030;1.822;2023-03-15T05:42:23;100908.78;;;20.97;36.14
62544;BME280;48597;49.030;1.822;2023-03-15T05:44:54;100921.50;;;20.96;36.24
62544;BME280;48597;49.030;1.822;2023-03-15T05:47:21;100920.69;;;20.96;35.98
62544;BME280;48597;49.030;1.822;2023-03-15T05:49:47;100932.63;;;20.94;36.18
62544;BME280;48597;49.030;1.822;2023-03-15T05:52:13;100928.94;;;20.94;36.13
62544;BME280;48597;49.030;1.822;2023-03-15T05:54:39;100928.13;;;20.93;35.94
62544;BME280;48597;49.030;1.822;2023-03-15T05:57:04;100935.94;;;20.93;36.09
62544;BME280;48597;49.030;1.822;2023-03-15T05:59:30;100937.19;;;20.92;36.09
62544;BME280;48597;49.030;1.822;2023-03-15T06:01:55;100939.25;;;20.91;35.87
62544;BME280;48597;49.030;1.822;2023-03-15T06:04:21;100939.72;;;20.90;36.04
62544;BME280;48597;49.030;1.822;2023-03-15T06:06:47;100938.13;;;20.89;36.02
62544;BME280;48597;49.030;1.822;2023-03-15T06:09:12;100942.25;;;20.88;36.01
62544;BME280;48597;49.030;1.822;2023-03-15T06:11:37;100938.56;;;20.87;36.05
62544;BME280;48597;49.030;1.822;2023-03-15T06:14:03;100941.09;;;20.85;35.93
62544;BME280;48597;49.030;1.822;2023-03-15T06:16:29;100950.50;;;20.86;36.01
62544;BME280;48597;49.030;1.822;2023-03-15T06:18:54;100951.75;;;20.85;35.99
62544;BME280;48597;49.030;1.822;2023-03-15T06:21:19;100950.13;;;20.84;35.86
62544;BME280;48597;49.030;1.822;2023-03-15T06:26:10;100949.78;;;20.82;35.93
62544;BME280;48597;49.030;1.822;2023-03-15T06:28:35;100943.25;;;20.81;36.23
62544;BME280;48597;49.030;1.822;2023-03-15T06:31:08;100942.44;;;20.81;36.55
62544;BME280;48597;49.030;1.822;2023-03-15T06:33:34;100949.44;;;20.80;36.64
62544;BME280;48597;49.030;1.822;2023-03-15T06:35:59;100950.69;;;20.79;36.66
62544;BME280;48597;49.030;1.822;2023-03-15T06:38:24;100947.03;;;20.78;36.75
62544;BME280;48597;49.030;1.822;2023-03-15T06:40:50;100946.22;;;20.78;36.94
62544;BME280;48597;49.030;1.822;2023-03-15T06:43:15;100948.31;;;20.77;36.89
62544;BME280;48597;49.030;1.822;2023-03-15T06:45:45;100945.44;;;20.77;36.83
62544;BME280;48597;49.030;1.822;2023-03-15T06:48:12;100949.56;;;20.76;36.73
62544;BME280;48597;49.030;1.822;2023-03-15T06:50:38;100945.09;;;20.75;36.60
62544;BME280;48597;49.030;1.822;2023-03-15T06:53:03;100950.00;;;20.75;36.82
62544;BME280;48597;49.030;1.822;2023-03-15T06:55:29;100950.81;;;20.75;36.77
62544;BME280;48597;49.030;1.822;2023-03-15T06:57:54;100945.53;;;20.74;36.63
62544;BME280;48597;49.030;1.822;2023-03-15T07:00:20;100953.34;;;20.73;36.85
62544;BME280;48597;49.030;1.822;2023-03-15T07:02:47;100950.47;;;20.73;36.83
62544;BME280;48597;49.030;1.822;2023-03-15T07:05:12;100949.22;;;20.74;36.87
62544;BME280;48597;49.030;1.822;2023-03-15T07:07:38;100947.59;;;20.73;36.97
62544;BME280;48597;49.030;1.822;2023-03-15T07:10:03;100960.66;;;20.74;36.68
62544;BME280;48597;49.030;1.822;2023-03-15T07:12:29;100953.69;;;20.75;36.98
62544;BME280;48597;49.030;1.822;2023-03-15T07:14:54;100970.88;;;20.75;36.87
62544;BME280;48597;49.030;1.822;2023-03-15T07:17:20;100971.69;;;20.76;36.91
62544;BME280;48597;49.030;1.822;2023-03-15T07:19:46;100983.13;;;20.76;36.91
62544;BME280;48597;49.030;1.822;2023-03-15T07:22:11;100984.75;;;20.77;36.91
62544;BME280;48597;49.030;1.822;2023-03-15T07:24:37;100987.59;;;20.77;37.01
62544;BME280;48597;49.030;1.822;2023-03-15T07:27:03;100981.88;;;20.77;37.08
62544;BME280;48597;49.030;1.822;2023-03-15T07:29:29;100990.78;;;20.79;37.00
62544;BME280;48597;49.030;1.822;2023-03-15T07:31:54;100997.69;;;20.81;37.09
62544;BME280;48597;49.030;1.822;2023-03-15T07:34:20;100999.28;;;20.82;36.96
62544;BME280;48597;49.030;1.822;2023-03-15T07:36:45;101001.59;;;20.87;36.88
62544;BME280;48597;49.030;1.822;2023-03-15T07:39:11;100999.09;;;20.89;36.69
62544;BME280;48597;49.030;1.822;2023-03-15T07:41:37;101003.91;;;20.92;36.81
62544;BME280;48597;49.030;1.822;2023-03-15T07:44:02;101006.66;;;20.96;36.65
62544;BME280;48597;49.030;1.822;2023-03-15T07:46:28;101011.38;;;21.02;36.67
62544;BME280;48597;49.030;1.822;2023-03-15T07:48:53;101007.59;;;21.05;36.50
62544;BME280;48597;49.030;1.822;2023-03-15T07:51:19;101014.38;;;21.12;36.56
62544;BME280;48597;49.030;1.822;2023-03-15T07:53:44;101014.19;;;21.19;36.20
62544;BME280;48597;49.030;1.822;2023-03-15T07:56:10;101017.41;;;21.21;36.26
62544;BME280;48597;49.030;1.822;2023-03-15T07:58:35;101025.44;;;21.26;36.23
62544;BME280;48597;49.030;1.822;2023-03-15T08:01:00;101023.25;;;21.30;36.53
62544;BME280;48597;49.030;1.822;2023-03-15T08:03:26;101028.06;;;21.33;36.51
62544;BME280;48597;49.030;1.822;2023-03-15T08:05:52;101038.97;;;21.38;36.47
62544;BME280;48597;49.030;1.822;2023-03-15T08:08:18;101035.22;;;21.41;36.33
62544;BME280;48597;49.030;1.822;2023-03-15T08:10:44;101039.56;;;21.46;36.18
62544;BME280;48597;49.030;1.822;2023-03-15T08:13:10;101044.84;;;21.47;36.31
62544;BME280;48597;49.030;1.822;2023-03-15T08:15:36;101045.88;;;21.53;35.97
62544;BME280;48597;49.030;1.822;2023-03-15T08:18:01;101046.56;;;21.57;36.29
62544;BME280;48597;49.030;1.822;2023-03-15T08:20:27;101051.38;;;21.60;36.11
62544;BME280;48597;49.030;1.822;2023-03-15T08:22:53;101052.53;;;21.63;35.98
62544;BME280;48597;49.030;1.822;2023-03-15T08:25:21;101051.16;;;21.67;35.96
62544;BME280;48597;49.030;1.822;2023-03-15T08:27:48;101061.69;;;21.70;35.93
62544;BME280;48597;49.030;1.822;2023-03-15T08:30:15;101060.09;;;21.69;36.06
62544;BME280;48597;49.030;1.822;2023-03-15T08:32:42;101056.91;;;21.67;35.86
62544;BME280;48597;49.030;1.822;2023-03-15T08:35:09;101064.47;;;21.61;36.18
62544;BME280;48597;49.030;1.822;2023-03-15T08:37:37;101056.22;;;21.63;35.98
62544;BME280;48597;49.030;1.822;2023-03-15T08:40:03;101054.34;;;21.69;36.08
62544;BME280;48597;49.030;1.822;2023-03-15T08:42:36;101055.84;;;21.74;35.85
62544;BME280;48597;49.030;1.822;2023-03-15T08:45:04;101063.19;;;21.75;35.72
62544;BME280;48597;49.030;1.822;2023-03-15T08:47:31;101052.97;;;21.74;36.00
62544;BME280;48597;49.030;1.822;2023-03-15T08:49:59;101055.03;;;21.73;35.71
62544;BME280;48597;49.030;1.822;2023-03-15T08:52:25;101054.69;;;21.71;36.04
62544;BME280;48597;49.030;1.822;2023-03-15T08:54:51;101061.03;;;21.66;36.00
62544;BME280;48597;49.030;1.822;2023-03-15T08:57:16;101060.78;;;21.61;35.79
62544;BME280;48597;49.030;1.822;2023-03-15T08:59:41;101062.50;;;21.58;36.26
62544;BME280;48597;49.030;1.822;2023-03-15T09:02:09;101063.41;;;21.55;36.06
62544;BME280;48597;49.030;1.822;2023-03-15T09:04:35;101062.28;;;21.53;35.81
62544;BME280;48597;49.030;1.822;2023-03-15T09:07:00;101072.97;;;21.52;36.05
62544;BME280;48597;49.030;1.822;2023-03-15T09:09:26;101070.53;;;21.51;36.05
62544;BME280;48597;49.030;1.822;2023-03-15T09:11:51;101066.88;;;21.50;36.25
62544;BME280;48597;49.030;1.822;2023-03-15T09:14:17;101069.38;;;21.48;36.30
62544;BME280;48597;49.030;1.822;2023-03-15T09:16:42;101074.78;;;21.46;36.48
62544;BME280;48597;49.030;1.822;2023-03-15T09:19:07;101070.28;;;21.45;36.29
62544;BME280;48597;49.030;1.822;2023-03-15T09:21:33;101071.22;;;21.42;36.56
62544;BME280;48597;49.030;1.822;2023-03-15T09:23:58;101074.88;;;21.43;36.28
62544;BME280;48597;49.030;1.822;2023-03-15T09:26:24;101069.63;;;21.41;36.45
62544;BME280;48597;49.030;1.822;2023-03-15T09:28:49;101072.13;;;21.39;36.49
62544;BME280;48597;49.030;1.822;2023-03-15T09:31:15;101072.13;;;21.39;36.44
62544;BME280;48597;49.030;1.822;2023-03-15T09:33:40;101074.19;;;21.38;36.69
62544;BME280;48597;49.030;1.822;2023-03-15T09:36:06;101068.13;;;21.36;36.31
62544;BME280;48597;49.030;1.822;2023-03-15T09:38:31;101063.63;;;21.35;36.37
62544;BME280;48597;49.030;1.822;2023-03-15T09:40:58;101077.16;;;21.35;36.49
62544;BME280;48597;49.030;1.822;2023-03-15T09:46:24;101075.22;;;21.32;36.73
62544;BME280;48597;49.030;1.822;2023-03-15T09:49:10;101070.41;;;21.29;36.02
62544;BME280;48597;49.030;1.822;2023-03-15T09:51:45;101073.72;;;21.27;36.70
62544;BME280;48597;49.030;1.822;2023-03-15T09:56:42;101075.78;;;21.27;36.86
62544;BME280;48597;49.030;1.822;2023-03-15T09:59:10;101075.44;;;21.25;36.60
62544;BME280;48597;49.030;1.822;2023-03-15T10:01:40;101068.91;;;21.24;36.70
62544;BME280;48597;49.030;1.822;2023-03-15T10:06:52;101070.97;;;21.24;36.61
62544;BME280;48597;49.030;1.822;2023-03-15T10:09:22;101069.34;;;21.23;36.72
62544;BME280;48597;49.030;1.822;2023-03-15T10:12:00;101070.59;;;21.22;36.27
62544;BME280;48597;49.030;1.822;2023-03-15T10:14:56;101064.06;;;21.21;36.93
62544;BME280;48597;49.030;1.822;2023-03-15T10:19:59;101064.13;;;21.18;36.89
62544;BME280;48597;49.030;1.822;2023-03-15T10:22:43;101064.59;;;21.16;36.41
62544;BME280;48597;49.030;1.822;2023-03-15T10:25:19;101057.28;;;21.15;36.66
62544;BME280;48597;49.030;1.822;2023-03-15T10:30:27;101057.72;;;21.14;37.01
62544;BME280;48597;49.030;1.822;2023-03-15T10:32:57;101053.34;;;21.09;36.24
62544;BME280;48597;49.030;1.822;2023-03-15T10:35:24;101052.91;;;21.11;36.79
62544;BME280;48597;49.030;1.822;2023-03-15T10:37:49;101049.22;;;21.10;36.93
62544;BME280;48597;49.030;1.822;2023-03-15T10:43:18;101049.69;;;21.09;36.88
62544;BME280;48597;49.030;1.822;2023-03-15T10:48:30;101054.59;;;21.08;36.98
62544;BME280;48597;49.030;1.822;2023-03-15T10:50:56;101051.38;;;21.06;36.85
62544;BME280;48597;49.030;1.822;2023-03-15T10:53:25;101050.59;;;21.05;37.07
62544;BME280;48597;49.030;1.822;2023-03-15T10:56:00;101046.47;;;21.07;36.64
62544;BME280;48597;49.030;1.822;2023-03-15T10:58:41;101052.63;;;21.05;36.99
62544;BME280;48597;49.030;1.822;2023-03-15T11:01:21;101042.44;;;21.04;37.06
62544;BME280;48597;49.030;1.822;2023-03-15T11:04:00;101055.19;;;21.03;36.73
62544;BME280;48597;49.030;1.822;2023-03-15T11:06:26;101045.78;;;21.02;37.06
62544;BME280;48597;49.030;1.822;2023-03-15T11:08:53;101044.16;;;21.01;36.96
62544;BME280;48597;49.030;1.822;2023-03-15T11:14:19;101055.28;;;20.99;37.00
62544;BME280;48597;49.030;1.822;2023-03-15T11:16:54;101045.44;;;21.00;36.93
62544;BME280;48597;49.030;1.822;2023-03-15T11:19:25;101040.94;;;20.99;37.28
62544;BME280;48597;49.030;1.822;2023-03-15T11:21:51;101047.94;;;20.98;37.18
62544;BME280;48597;49.030;1.822;2023-03-15T11:24:25;101047.94;;;20.98;37.13
62544;BME280;48597;49.030;1.822;2023-03-15T11:26:53;101050.81;;;20.98;37.21
62544;BME280;48597;49.030;1.822;2023-03-15T11:29:24;101037.72;;;20.97;37.17
62544;BME280;48597;49.030;1.822;2023-03-15T11:31:53;101049.19;;;20.97;37.06
62544;BME280;48597;49.030;1.822;2023-03-15T11:37:44;101049.66;;;20.96;37.10
62544;BME280;48597;49.030;1.822;2023-03-15T11:40:17;101051.72;;;20.95;37.16
62544;BME280;48597;49.030;1.822;2023-03-15T11:43:02;101055.03;;;20.94;37.31
62544;BME280;48597;49.030;1.822;2023-03-15T11:45:34;101050.91;;;20.95;37.17
62544;BME280;48597;49.030;1.822;2023-03-15T11:48:06;101046.88;;;20.92;37.32
62544;BME280;48597;49.030;1.822;2023-03-15T11:50:35;101051.81;;;20.92;37.42
62544;BME280;48597;49.030;1.822;2023-03-15T11:53:01;101045.75;;;20.90;37.47
62544;BME280;48597;49.030;1.822;2023-03-15T11:55:28;101052.25;;;20.90;37.39
62544;BME280;48597;49.030;1.822;2023-03-15T11:57:54;101054.34;;;20.90;37.38
62544;BME280;48597;49.030;1.822;2023-03-15T12:00:51;101057.66;;;20.88;36.92
62544;BME280;48597;49.030;1.822;2023-03-15T12:03:34;101062.13;;;20.89;36.99
62544;BME280;48597;49.030;1.822;2023-03-15T12:06:33;101071.19;;;20.88;36.99
62544;BME280;48597;49.030;1.822;2023-03-15T12:08:59;101062.59;;;20.88;37.27
62544;BME280;48597;49.030;1.822;2023-03-15T12:14:23;101056.41;;;20.89;36.65
62544;BME280;48597;49.030;1.822;2023-03-15T12:16:49;101054.00;;;20.88;37.34
62544;BME280;48597;49.030;1.822;2023-03-15T12:19:19;101050.69;;;20.89;37.07
62544;BME280;48597;49.030;1.822;2023-03-15T12:21:51;101039.22;;;20.89;37.25
62544;BME280;48597;49.030;1.822;2023-03-15T12:24:23;101042.88;;;20.90;37.11
62544;BME280;48597;49.030;1.822;2023-03-15T12:27:05;101035.53;;;20.89;37.02
62544;BME280;48597;49.030;1.822;2023-03-15T12:29:37;101040.47;;;20.88;37.25
62544;BME280;48597;49.030;1.822;2023-03-15T12:34:53;101040.78;;;20.90;37.19
62544;BME280;48597;49.030;1.822;2023-03-15T12:48:25;101042.06;;;20.89;37.09
62544;BME280;48597;49.030;1.822;2023-03-15T12:55:57;101039.22;;;20.89;37.25
62544;BME280;48597;49.030;1.822;2023-03-15T12:58:30;101028.06;;;20.91;37.26
62544;BME280;48597;49.030;1.822;2023-03-15T13:01:04;101017.09;;;20.90;37.24
62544;BME280;48597;49.030;1.822;2023-03-15T13:03:32;101017.66;;;20.85;37.03
62544;BME280;48597;49.030;1.822;2023-03-15T13:19:09;101007.56;;;20.93;37.12
62544;BME280;48597;49.030;1.822;2023-03-15T13:22:04;100999.78;;;20.93;37.23
62544;BME280;48597;49.030;1.822;2023-03-15T13:29:55;100998.53;;;20.94;37.62
62544;BME280;48597;49.030;1.822;2023-03-15T13:32:22;100995.66;;;20.94;37.46
62544;BME280;48597;49.030;1.822;2023-03-15T13:34:48;100996.47;;;20.95;37.63
62544;BME280;48597;49.030;1.822;2023-03-15T13:37:23;100996.81;;;20.97;37.40
62544;BME280;48597;49.030;1.822;2023-03-15T13:42:20;100997.63;;;20.97;37.62
62544;BME280;48597;49.030;1.822;2023-03-15T13:45:13;100988.22;;;20.97;37.29
62544;BME280;48597;49.030;1.822;2023-03-15T13:47:41;100986.16;;;20.97;37.71
62544;BME280;48597;49.030;1.822;2023-03-15T13:50:12;100984.09;;;20.98;37.51
62544;BME280;48597;49.030;1.822;2023-03-15T13:52:40;100989.81;;;20.98;37.64
62544;BME280;48597;49.030;1.822;2023-03-15T13:55:06;100984.91;;;20.98;37.50
62544;BME280;48597;49.030;1.822;2023-03-15T13:57:35;100977.91;;;20.99;37.69
62544;BME280;48597;49.030;1.822;2023-03-15T14:00:04;100981.56;;;21.00;37.50
62544;BME280;48597;49.030;1.822;2023-03-15T14:05:07;100984.19;;;20.94;37.47
62544;BME280;48597;49.030;1.822;2023-03-15T14:07:38;100980.41;;;20.97;37.68
62544;BME280;48597;49.030;1.822;2023-03-15T14:10:31;100975.03;;;20.99;37.59
62544;BME280;48597;49.030;1.822;2023-03-15T14:15:45;100972.19;;;20.99;37.67
62544;BME280;48597;49.030;1.822;2023-03-15T14:18:27;100975.41;;;21.01;37.54
62544;BME280;48597;49.030;1.822;2023-03-15T14:21:15;100968.84;;;21.01;37.51
62544;BME280;48597;49.030;1.822;2023-03-15T14:23:44;100971.72;;;21.01;37.60